Meath Environmental Platform

Observations for Trim Market St

Time AQI Temp °C Hum % Pres Pa CO μg/m³ H₂S μg/m³ NO μg/m³ NO₂ μg/m³ O₃ μg/m³ SO₂ μg/m³ PM1 μg/m³ PM2.5 μg/m³ PM10 μg/m³
Saturday 22 August 2026
07:27 2 12.4 75 49,732 0.55 0 3.49 10.98 45.39 0 1.43 4.27 6.93
07:21 2 12.2 75 48,020 0.58 0 3.56 12.33 42.26 0 2.85 4.72 7.53
07:19 2 12 75 47,273 1.66 0 4.49 14.24 39.89 0 2.14 3.28 6.34
07:18 2 12 75 46,924 4.51 1.18 3.91 14.89 38.01 0 2.14 3.76 7.53
07:16 2 11.9 76 46,430 0.54 0 3.92 12.91 41.24 0 1.43 3.75 6.34
07:09 2 11.5 76 45,004 0.54 0 3.6 12.9 38.96 0 2.14 3.74 6.35
07:08 2 11.5 76 44,697 0.54 0 3.6 13.02 39.27 0 0.71 2.78 5.16
07:07 2 11.4 76 44,408 0.54 0 3.85 12.99 39.19 0 2.14 3.73 7.53
07:06 2 11.4 76 44,148 0.53 0 3.84 13.35 38.61 0 2.14 3.25 5.76
07:05 2 11.3 76 43,936 0.54 0 3.92 13.54 37.34 0 2.14 3.73 7.53
07:04 2 11.3 76 43,744 0.54 0 3.45 13.2 38.79 0 1.43 2.77 5.17
07:03 2 11.3 76 43,574 0.53 0 3.67 13.2 39.51 0 2.14 4.2 8.71
07:02 2 11.3 76 43,484 0.52 0 3.93 13.85 39.02 0 2.14 3.73 6.35
07:01 2 11.2 76 43,491 0.53 0 4.35 13.38 38.75 0 1.43 2.77 6.35
07:00 2 11.1 76 43,579 0.51 0 4.54 13.22 38.35 0 2.14 3.73 7.53
06:59 2 11.1 76 43,657 0.5 0 4.84 13.11 38.72 0 2.14 3.25 7.53
06:58 2 11 76 43,824 0.5 0 4.6 12.79 38.31 0 2.14 3.25 5.76
06:57 2 10.9 76 44,001 0.49 0 4.66 13.22 39.75 0 1.43 2.78 5.76
06:56 2 10.9 76 44,193 0.49 0 4.22 11.31 42.71 0 1.43 3.25 5.76
06:54 2 10.8 76 44,425 0.49 0 4.54 13.17 33.93 0 2.14 4.21 6.94